createdAt,value
2018-11-11T00:00:14.386Z,978.04
2018-11-11T00:01:21.287Z,978.11
2018-11-11T00:02:28.103Z,978.07
2018-11-11T00:03:34.919Z,978.12
2018-11-11T00:04:41.769Z,978.10
2018-11-11T00:05:48.491Z,978.07
2018-11-11T00:06:55.405Z,978.04
2018-11-11T00:08:02.158Z,978.00
2018-11-11T00:09:09.166Z,978.00
2018-11-11T00:10:16.174Z,977.93
2018-11-11T00:11:22.906Z,977.94
2018-11-11T00:12:29.630Z,977.95
2018-11-11T00:13:36.405Z,978.07
2018-11-11T00:14:43.172Z,978.11
2018-11-11T00:15:49.974Z,978.12
2018-11-11T00:16:56.763Z,978.12
2018-11-11T00:18:03.525Z,978.15
2018-11-11T00:19:10.287Z,978.11
2018-11-11T00:20:17.085Z,978.10
2018-11-11T00:21:23.946Z,978.08
2018-11-11T00:22:30.867Z,978.12
2018-11-11T00:23:37.666Z,978.13
2018-11-11T00:24:44.600Z,978.12
2018-11-11T00:25:51.415Z,978.16
2018-11-11T00:26:58.160Z,978.17
2018-11-11T00:28:04.993Z,978.08
2018-11-11T00:29:11.849Z,978.10
2018-11-11T00:30:18.702Z,978.10
2018-11-11T00:31:25.687Z,978.10
2018-11-11T00:32:32.516Z,978.17
2018-11-11T00:33:39.386Z,978.07
2018-11-11T00:34:46.275Z,978.11
2018-11-11T00:35:53.081Z,978.10
2018-11-11T00:36:59.979Z,978.01
2018-11-11T00:38:06.804Z,978.09
2018-11-11T00:39:14.574Z,978.06
2018-11-11T00:40:20.465Z,978.08
2018-11-11T00:41:27.326Z,978.03
2018-11-11T00:42:34.122Z,978.07
2018-11-11T00:43:40.878Z,978.09
2018-11-11T00:44:47.672Z,978.00
2018-11-11T00:45:54.552Z,978.10
2018-11-11T00:47:01.367Z,978.04
2018-11-11T00:48:08.477Z,978.09
2018-11-11T00:49:15.232Z,978.06
2018-11-11T00:50:22.072Z,978.07
2018-11-11T00:51:28.879Z,978.05
2018-11-11T00:52:35.694Z,978.11
2018-11-11T00:53:42.557Z,978.00
2018-11-11T00:54:49.383Z,978.13
2018-11-11T00:55:56.105Z,978.05
2018-11-11T00:57:02.877Z,978.09
2018-11-11T00:58:09.747Z,978.05
2018-11-11T00:59:16.686Z,978.14
2018-11-11T01:00:23.453Z,978.05
2018-11-11T01:01:30.293Z,978.07
2018-11-11T01:02:37.082Z,978.07
2018-11-11T01:03:43.924Z,978.02
2018-11-11T01:04:50.826Z,978.01
2018-11-11T01:05:57.597Z,978.04
2018-11-11T01:07:04.415Z,978.05
2018-11-11T01:08:11.218Z,977.99
2018-11-11T01:09:17.998Z,978.04
2018-11-11T01:10:24.782Z,978.04
2018-11-11T01:11:31.506Z,978.04
2018-11-11T01:12:38.286Z,978.10
2018-11-11T01:13:45.279Z,978.13
2018-11-11T01:14:52.123Z,978.08
2018-11-11T01:15:58.905Z,978.02
2018-11-11T01:17:05.637Z,978.07
2018-11-11T01:18:12.746Z,978.10
2018-11-11T01:19:19.502Z,978.12
2018-11-11T01:20:26.301Z,978.01
2018-11-11T01:21:33.018Z,978.12
2018-11-11T01:22:39.747Z,978.13
2018-11-11T01:23:46.573Z,978.05
2018-11-11T01:24:53.342Z,978.18
2018-11-11T01:26:00.088Z,978.20
2018-11-11T01:27:07.114Z,978.12
2018-11-11T01:28:13.871Z,978.20
2018-11-11T01:29:20.658Z,978.33
2018-11-11T01:30:27.503Z,978.32
2018-11-11T01:31:34.202Z,978.31
2018-11-11T01:32:40.910Z,978.24
2018-11-11T01:33:47.618Z,978.23
2018-11-11T01:34:54.346Z,978.27
2018-11-11T01:36:01.223Z,978.28
2018-11-11T01:37:08.354Z,978.23
2018-11-11T01:38:15.091Z,978.28
2018-11-11T01:39:21.814Z,978.16
2018-11-11T01:40:28.587Z,978.23
2018-11-11T01:41:35.387Z,978.20
2018-11-11T01:42:42.289Z,978.23
2018-11-11T01:43:49.156Z,978.22
2018-11-11T01:44:55.921Z,978.24
2018-11-11T01:46:02.654Z,978.20
2018-11-11T01:47:09.390Z,978.22
2018-11-11T01:48:16.174Z,978.20
2018-11-11T01:49:22.879Z,978.20
2018-11-11T01:50:29.644Z,978.14
2018-11-11T01:51:36.383Z,978.16
2018-11-11T01:52:43.223Z,978.28
2018-11-11T01:53:50.040Z,978.23
2018-11-11T01:54:56.845Z,978.28
2018-11-11T01:56:03.653Z,978.08
2018-11-11T01:57:10.422Z,978.11
2018-11-11T01:58:17.212Z,978.15
2018-11-11T01:59:23.970Z,978.27
2018-11-11T02:00:30.738Z,978.19
2018-11-11T02:01:37.523Z,978.23
2018-11-11T02:02:44.378Z,978.28
2018-11-11T02:03:51.358Z,978.21
2018-11-11T02:04:58.142Z,978.21
2018-11-11T02:06:04.945Z,978.10
2018-11-11T02:07:11.712Z,978.03
2018-11-11T02:08:18.563Z,978.02
2018-11-11T02:09:25.323Z,977.97
2018-11-11T02:10:32.095Z,977.87
2018-11-11T02:11:38.967Z,977.90
2018-11-11T02:12:45.860Z,977.85
2018-11-11T02:13:52.619Z,977.85
2018-11-11T02:14:59.412Z,977.92
2018-11-11T02:16:06.271Z,977.90
2018-11-11T02:17:13.172Z,977.89
2018-11-11T02:18:19.983Z,977.90
2018-11-11T02:19:26.872Z,977.92
2018-11-11T02:20:33.686Z,977.85
2018-11-11T02:21:40.564Z,977.87
2018-11-11T02:22:47.382Z,977.90
2018-11-11T02:23:54.342Z,977.97
2018-11-11T02:25:01.150Z,977.93
2018-11-11T02:26:07.898Z,977.87
2018-11-11T02:27:14.629Z,977.89
2018-11-11T02:28:21.393Z,977.87
2018-11-11T02:29:28.236Z,977.95
2018-11-11T02:30:35.038Z,977.84
2018-11-11T02:31:41.828Z,977.91
2018-11-11T02:32:48.617Z,977.92
2018-11-11T02:33:55.374Z,977.79
2018-11-11T02:35:02.137Z,977.83
2018-11-11T02:36:09.286Z,977.89
2018-11-11T02:37:16.204Z,977.86
2018-11-11T02:38:22.961Z,977.79
2018-11-11T02:39:29.719Z,977.89
2018-11-11T02:40:36.577Z,977.86
2018-11-11T02:41:43.333Z,977.78
2018-11-11T02:42:50.150Z,977.82
2018-11-11T02:43:57.006Z,977.82
2018-11-11T02:45:03.856Z,977.79
2018-11-11T02:46:10.853Z,977.76
2018-11-11T02:47:17.657Z,977.75
2018-11-11T02:48:24.543Z,977.80
2018-11-11T02:49:31.310Z,977.72
2018-11-11T02:50:38.154Z,977.67
2018-11-11T02:51:44.973Z,977.67
2018-11-11T02:52:51.882Z,977.76
2018-11-11T02:53:58.776Z,977.78
2018-11-11T02:55:05.847Z,977.73
2018-11-11T02:56:12.554Z,977.74
2018-11-11T02:57:19.365Z,977.78
2018-11-11T02:58:26.142Z,977.81
2018-11-11T02:59:32.983Z,977.80
2018-11-11T03:00:39.791Z,977.82
2018-11-11T03:01:46.680Z,977.85
2018-11-11T03:02:53.547Z,977.94
2018-11-11T03:04:00.435Z,977.92
2018-11-11T03:05:07.289Z,977.87
2018-11-11T03:06:14.402Z,977.94
2018-11-11T03:07:20.848Z,977.84
2018-11-11T03:08:27.671Z,977.89
2018-11-11T03:09:34.442Z,977.85
2018-11-11T03:10:41.233Z,977.88
2018-11-11T03:11:48.059Z,977.94
2018-11-11T03:12:54.819Z,977.87
2018-11-11T03:14:01.654Z,977.76
2018-11-11T03:15:08.586Z,977.75
2018-11-11T03:16:15.514Z,977.71
2018-11-11T03:17:22.334Z,977.75
2018-11-11T03:18:29.166Z,977.67
2018-11-11T03:19:35.906Z,977.67
2018-11-11T03:20:42.710Z,977.66
2018-11-11T03:21:49.595Z,977.76
2018-11-11T03:22:56.349Z,977.71
2018-11-11T03:24:03.111Z,977.78
2018-11-11T03:25:09.882Z,977.80
2018-11-11T03:26:16.978Z,977.72
2018-11-11T03:27:23.774Z,977.64
2018-11-11T03:28:30.587Z,977.66
2018-11-11T03:29:37.358Z,977.66
2018-11-11T03:30:44.175Z,977.59
2018-11-11T03:31:50.990Z,977.70
2018-11-11T03:32:57.766Z,977.70
2018-11-11T03:34:04.575Z,977.73
2018-11-11T03:35:11.350Z,977.76
2018-11-11T03:36:18.357Z,977.68
2018-11-11T03:37:25.474Z,977.60
2018-11-11T03:38:32.218Z,977.54
2018-11-11T03:39:38.982Z,977.55
2018-11-11T03:40:45.717Z,977.54
2018-11-11T03:41:52.477Z,977.56
2018-11-11T03:42:59.251Z,977.58
2018-11-11T03:44:06.010Z,977.61
2018-11-11T03:45:12.862Z,977.53
2018-11-11T03:46:20.012Z,977.61
2018-11-11T03:47:27.137Z,977.68
2018-11-11T03:48:33.927Z,977.70
2018-11-11T03:49:40.693Z,977.80
2018-11-11T03:50:47.514Z,977.72
2018-11-11T03:51:54.294Z,977.73
2018-11-11T03:53:01.041Z,977.84
2018-11-11T03:54:07.818Z,977.73
2018-11-11T03:55:14.630Z,977.68
2018-11-11T03:56:21.674Z,977.73
2018-11-11T03:57:28.459Z,977.75
2018-11-11T03:58:35.262Z,977.73
2018-11-11T03:59:42.087Z,977.78
2018-11-11T04:00:48.835Z,977.89
2018-11-11T04:01:55.590Z,977.91
2018-11-11T04:03:02.326Z,977.91
2018-11-11T04:04:09.136Z,977.82
2018-11-11T04:05:16.372Z,977.85
2018-11-11T04:06:22.650Z,977.73
2018-11-11T04:07:29.413Z,977.73
2018-11-11T04:08:36.223Z,977.75
2018-11-11T04:09:43.015Z,977.63
2018-11-11T04:10:49.849Z,977.57
2018-11-11T04:11:56.579Z,977.66
2018-11-11T04:13:03.342Z,977.67
2018-11-11T04:14:10.135Z,977.70
2018-11-11T04:15:17.009Z,977.65
2018-11-11T04:16:23.769Z,977.66
2018-11-11T04:17:30.632Z,977.66
2018-11-11T04:18:37.416Z,977.65
2018-11-11T04:19:44.203Z,977.59
2018-11-11T04:20:51.023Z,977.52
2018-11-11T04:21:57.854Z,977.58
2018-11-11T04:23:04.859Z,977.61
2018-11-11T04:24:11.662Z,977.62
2018-11-11T04:25:18.519Z,977.63
2018-11-11T04:26:25.395Z,977.64
2018-11-11T04:27:32.230Z,977.67
2018-11-11T04:28:38.986Z,977.78
2018-11-11T04:29:45.794Z,977.81
2018-11-11T04:30:52.641Z,977.71
2018-11-11T04:31:59.569Z,977.75
2018-11-11T04:33:06.358Z,977.84
2018-11-11T04:34:13.111Z,977.77
2018-11-11T04:35:19.977Z,977.83
2018-11-11T04:36:26.761Z,977.85
2018-11-11T04:37:33.643Z,977.88
2018-11-11T04:38:40.419Z,977.91
2018-11-11T04:39:47.190Z,977.98
2018-11-11T04:40:53.987Z,978.03
2018-11-11T04:42:00.792Z,978.05
2018-11-11T04:43:07.671Z,978.02
2018-11-11T04:44:14.424Z,978.05
2018-11-11T04:45:21.229Z,978.03
2018-11-11T04:46:28.023Z,977.99
2018-11-11T04:47:34.825Z,978.04
2018-11-11T04:48:41.642Z,977.99
2018-11-11T04:49:48.450Z,977.99
2018-11-11T04:50:55.255Z,978.02
2018-11-11T04:52:02.047Z,978.05
2018-11-11T04:53:09.084Z,978.05
2018-11-11T04:54:15.878Z,978.05
2018-11-11T04:55:22.663Z,978.01
2018-11-11T04:56:29.569Z,978.04
2018-11-11T04:57:36.295Z,978.01
2018-11-11T04:58:43.178Z,977.98
2018-11-11T04:59:49.999Z,978.06
2018-11-11T05:00:56.775Z,978.07
2018-11-11T05:02:03.582Z,978.08
2018-11-11T05:03:14.614Z,978.08
2018-11-11T05:04:17.350Z,978.06
2018-11-11T05:05:24.075Z,978.09
2018-11-11T05:06:30.846Z,978.12
2018-11-11T05:07:37.658Z,978.10
2018-11-11T05:08:44.806Z,978.06
2018-11-11T05:09:51.588Z,978.11
2018-11-11T05:10:58.366Z,978.10
2018-11-11T05:12:05.141Z,978.12
2018-11-11T05:13:11.864Z,978.04
2018-11-11T05:14:18.662Z,978.08
2018-11-11T05:15:25.438Z,978.05
2018-11-11T05:16:32.227Z,978.04
2018-11-11T05:17:39.030Z,978.15
2018-11-11T05:18:45.860Z,978.14
2018-11-11T05:19:52.603Z,978.19
2018-11-11T05:20:59.354Z,978.22
2018-11-11T05:22:06.067Z,978.15
2018-11-11T05:23:12.960Z,978.16
2018-11-11T05:24:19.762Z,978.18
2018-11-11T05:25:26.491Z,978.15
2018-11-11T05:26:33.327Z,978.13
2018-11-11T05:27:40.294Z,978.17
2018-11-11T05:28:47.374Z,978.19
2018-11-11T05:29:54.219Z,978.23
2018-11-11T05:31:00.949Z,978.22
2018-11-11T05:32:07.751Z,978.21
2018-11-11T05:33:14.630Z,978.18
2018-11-11T05:34:21.372Z,978.29
2018-11-11T05:35:28.095Z,978.22
2018-11-11T05:36:34.884Z,978.28
2018-11-11T05:37:41.670Z,978.22
2018-11-11T05:38:48.798Z,978.22
2018-11-11T05:39:55.542Z,978.24
2018-11-11T05:41:02.298Z,978.24
2018-11-11T05:42:09.231Z,978.18
2018-11-11T05:43:15.974Z,978.35
2018-11-11T05:44:22.799Z,978.31
2018-11-11T05:45:29.634Z,978.33
2018-11-11T05:46:36.434Z,978.27
2018-11-11T05:47:43.391Z,978.35
2018-11-11T05:48:50.150Z,978.37
2018-11-11T05:49:56.911Z,978.35
2018-11-11T05:51:03.673Z,978.30
2018-11-11T05:52:10.501Z,978.40
2018-11-11T05:53:17.311Z,978.44
2018-11-11T05:54:24.198Z,978.44
2018-11-11T05:55:31.076Z,978.46
2018-11-11T05:56:37.942Z,978.43
2018-11-11T05:57:44.775Z,978.48
2018-11-11T05:58:51.609Z,978.48
2018-11-11T05:59:58.379Z,978.55
2018-11-11T06:01:05.137Z,978.53
2018-11-11T06:02:11.960Z,978.53
2018-11-11T06:03:18.745Z,978.58
2018-11-11T06:04:25.534Z,978.47
2018-11-11T06:05:32.254Z,978.54
2018-11-11T06:06:39.023Z,978.45
2018-11-11T06:07:45.840Z,978.57
2018-11-11T06:08:52.591Z,978.50
2018-11-11T06:09:59.356Z,978.57
2018-11-11T06:11:06.169Z,978.65
2018-11-11T06:12:13.028Z,978.69
2018-11-11T06:13:19.809Z,978.70
2018-11-11T06:14:26.611Z,978.63
2018-11-11T06:15:33.463Z,978.66
2018-11-11T06:16:40.254Z,978.69
2018-11-11T06:17:46.983Z,978.64
2018-11-11T06:18:53.727Z,978.61
2018-11-11T06:20:00.541Z,978.59
2018-11-11T06:21:07.658Z,978.59
2018-11-11T06:22:14.401Z,978.62
2018-11-11T06:23:21.145Z,978.68
2018-11-11T06:24:27.961Z,978.59
2018-11-11T06:25:34.779Z,978.53
2018-11-11T06:26:41.521Z,978.51
2018-11-11T06:27:48.358Z,978.55
2018-11-11T06:28:55.110Z,978.56
2018-11-11T06:30:02.042Z,978.56
2018-11-11T06:31:08.742Z,978.61
2018-11-11T06:32:15.487Z,978.62
2018-11-11T06:33:22.186Z,978.61
2018-11-11T06:34:28.984Z,978.68
2018-11-11T06:35:35.866Z,978.77
2018-11-11T06:36:42.638Z,978.81
2018-11-11T06:37:49.431Z,978.83
2018-11-11T06:38:56.367Z,978.91
2018-11-11T06:40:03.141Z,978.98
2018-11-11T06:41:09.994Z,978.87
2018-11-11T06:42:16.795Z,979.01
2018-11-11T06:43:23.640Z,978.98
2018-11-11T06:44:30.513Z,979.05
2018-11-11T06:45:37.470Z,979.00
2018-11-11T06:46:44.278Z,979.16
2018-11-11T06:47:51.106Z,979.23
2018-11-11T06:48:58.207Z,979.31
2018-11-11T06:50:05.155Z,979.27
2018-11-11T06:51:11.951Z,979.34
2018-11-11T06:52:18.866Z,979.28
2018-11-11T06:53:25.719Z,979.29
2018-11-11T06:54:32.586Z,979.32
2018-11-11T06:55:39.369Z,979.36
2018-11-11T06:56:46.249Z,979.43
2018-11-11T06:57:53.055Z,979.38
2018-11-11T06:59:00.634Z,979.45
2018-11-11T07:00:06.985Z,979.35
2018-11-11T07:01:13.955Z,979.48
2018-11-11T07:02:20.862Z,979.43
2018-11-11T07:03:27.827Z,979.51
2018-11-11T07:04:34.555Z,979.40
2018-11-11T07:05:41.307Z,979.55
2018-11-11T07:06:48.201Z,979.52
2018-11-11T07:07:54.989Z,979.62
2018-11-11T07:09:01.835Z,979.58
2018-11-11T07:10:08.673Z,979.65
2018-11-11T07:11:15.593Z,979.64
2018-11-11T07:12:22.752Z,979.71
2018-11-11T07:13:29.641Z,979.70
2018-11-11T07:14:36.484Z,979.72
2018-11-11T07:15:43.336Z,979.77
2018-11-11T07:16:50.221Z,979.75
2018-11-11T07:17:57.046Z,979.78
2018-11-11T07:19:03.834Z,979.80
2018-11-11T07:20:10.735Z,979.65
2018-11-11T07:21:17.646Z,979.61
2018-11-11T07:22:24.454Z,979.69
2018-11-11T07:23:31.247Z,979.67
2018-11-11T07:24:38.022Z,979.61
2018-11-11T07:25:44.863Z,979.63
2018-11-11T07:26:51.687Z,979.57
2018-11-11T07:27:58.584Z,979.64
2018-11-11T07:29:05.383Z,979.70
2018-11-11T07:30:12.481Z,979.75
2018-11-11T07:31:19.324Z,979.70
2018-11-11T07:32:26.209Z,979.86
2018-11-11T07:33:33.210Z,979.81
2018-11-11T07:34:40.087Z,979.86
2018-11-11T07:35:46.921Z,979.94
2018-11-11T07:36:53.746Z,979.86
2018-11-11T07:38:00.771Z,979.86
2018-11-11T07:39:07.738Z,979.94
2018-11-11T07:40:14.735Z,979.91
2018-11-11T07:41:21.598Z,979.88
2018-11-11T07:42:28.469Z,979.93
2018-11-11T07:43:35.286Z,979.89
2018-11-11T07:44:42.250Z,979.96
2018-11-11T07:45:49.252Z,979.93
2018-11-11T07:46:55.855Z,979.96
2018-11-11T07:48:02.729Z,980.02
2018-11-11T07:49:09.655Z,979.99
2018-11-11T07:50:16.430Z,980.02
2018-11-11T07:51:23.272Z,980.12
2018-11-11T07:52:30.062Z,980.10
2018-11-11T07:53:36.877Z,980.13
2018-11-11T07:54:43.778Z,980.10
2018-11-11T07:55:50.628Z,980.15
2018-11-11T07:56:57.401Z,980.03
2018-11-11T07:58:04.459Z,980.02
2018-11-11T07:59:11.395Z,980.09
2018-11-11T08:00:18.224Z,980.04
2018-11-11T08:01:25.022Z,979.98
2018-11-11T08:02:31.855Z,979.92
2018-11-11T08:03:38.671Z,980.05
2018-11-11T08:04:46.362Z,980.04
2018-11-11T08:05:52.171Z,980.01
2018-11-11T08:06:59.035Z,979.94
2018-11-11T08:08:05.827Z,979.99
2018-11-11T08:09:12.614Z,980.08
2018-11-11T08:10:19.487Z,980.11
2018-11-11T08:11:26.446Z,980.14
2018-11-11T08:12:33.584Z,980.12
2018-11-11T08:13:40.425Z,980.17
2018-11-11T08:14:47.254Z,980.11
2018-11-11T08:15:54.107Z,980.08
2018-11-11T08:17:00.954Z,980.09
2018-11-11T08:18:07.868Z,980.16
2018-11-11T08:19:14.730Z,980.12
2018-11-11T08:20:21.538Z,980.13
2018-11-11T08:21:28.326Z,980.17
2018-11-11T08:22:35.251Z,980.27
2018-11-11T08:23:43.150Z,980.16
2018-11-11T08:24:48.973Z,980.16
2018-11-11T08:25:55.824Z,980.11
2018-11-11T08:27:02.694Z,980.12
2018-11-11T08:28:09.592Z,980.18
2018-11-11T08:29:16.422Z,980.18
2018-11-11T08:30:27.198Z,980.13
2018-11-11T08:31:30.536Z,980.15
2018-11-11T08:32:37.362Z,980.23
2018-11-11T08:33:44.318Z,980.25
2018-11-11T08:34:51.160Z,980.13
2018-11-11T08:35:58.043Z,980.24
2018-11-11T08:37:04.879Z,980.28
2018-11-11T08:38:11.681Z,980.23
2018-11-11T08:39:18.470Z,980.25
2018-11-11T08:40:25.366Z,980.29
2018-11-11T08:41:32.225Z,980.39
2018-11-11T08:42:39.022Z,980.37
2018-11-11T08:43:45.827Z,980.35
2018-11-11T08:44:52.630Z,980.41
2018-11-11T08:45:59.451Z,980.39
2018-11-11T08:47:06.419Z,980.28
2018-11-11T08:48:13.340Z,980.29
2018-11-11T08:49:20.178Z,980.32
2018-11-11T08:50:27.007Z,980.43
2018-11-11T08:51:33.795Z,980.46
2018-11-11T08:52:40.603Z,980.36
2018-11-11T08:53:47.753Z,980.36
2018-11-11T08:54:54.621Z,980.32
2018-11-11T08:56:01.515Z,980.29
2018-11-11T08:57:08.247Z,980.23
2018-11-11T08:58:15.054Z,980.35
2018-11-11T08:59:21.920Z,980.33
2018-11-11T09:00:28.805Z,980.36
2018-11-11T09:01:35.674Z,980.33
2018-11-11T09:02:42.497Z,980.28
2018-11-11T09:03:49.336Z,980.31
2018-11-11T09:04:56.481Z,980.27
2018-11-11T09:06:03.280Z,980.30
2018-11-11T09:07:10.094Z,980.38
2018-11-11T09:08:16.843Z,980.43
2018-11-11T09:09:23.613Z,980.38
2018-11-11T09:10:30.417Z,980.37
2018-11-11T09:11:37.322Z,980.37
2018-11-11T09:12:44.130Z,980.21
2018-11-11T09:13:50.932Z,980.26
2018-11-11T09:14:57.794Z,980.17
2018-11-11T09:16:04.594Z,980.25
2018-11-11T09:17:11.396Z,980.28
2018-11-11T09:18:18.234Z,980.33
2018-11-11T09:19:25.030Z,980.38
2018-11-11T09:20:31.829Z,980.26
2018-11-11T09:21:38.611Z,980.26
2018-11-11T09:22:45.357Z,980.25
2018-11-11T09:23:52.213Z,980.19
2018-11-11T09:24:59.026Z,980.23
2018-11-11T09:26:05.811Z,980.21
2018-11-11T09:27:12.643Z,980.24
2018-11-11T09:28:19.566Z,980.29
2018-11-11T09:29:26.445Z,980.25
2018-11-11T09:30:33.290Z,980.31
2018-11-11T09:31:39.979Z,980.25
2018-11-11T09:32:46.724Z,980.06
2018-11-11T09:33:53.642Z,980.16
2018-11-11T09:35:00.424Z,980.04
2018-11-11T09:36:07.165Z,980.21
2018-11-11T09:37:14.321Z,980.21
2018-11-11T09:38:21.205Z,980.27
2018-11-11T09:39:27.996Z,980.28
2018-11-11T09:40:34.770Z,980.25
2018-11-11T09:41:41.601Z,980.15
2018-11-11T09:42:48.365Z,980.34
2018-11-11T09:43:55.275Z,980.37
2018-11-11T09:45:02.128Z,980.21
2018-11-11T09:46:09.202Z,980.36
2018-11-11T09:47:16.034Z,980.40
2018-11-11T09:48:22.963Z,980.40
2018-11-11T09:49:29.766Z,980.43
2018-11-11T09:50:36.850Z,980.50
2018-11-11T09:51:44.194Z,980.54
2018-11-11T09:52:51.063Z,980.49
2018-11-11T09:53:57.759Z,980.47
2018-11-11T09:55:05.301Z,980.42
2018-11-11T09:56:11.666Z,980.48
2018-11-11T09:57:17.988Z,980.59
2018-11-11T09:58:24.836Z,980.56
2018-11-11T09:59:31.796Z,980.65
2018-11-11T10:00:38.682Z,980.55
2018-11-11T10:01:45.525Z,980.66
2018-11-11T10:02:52.419Z,980.53
2018-11-11T10:03:59.546Z,980.60
2018-11-11T10:05:06.595Z,980.55
2018-11-11T10:06:13.668Z,980.57
2018-11-11T10:07:20.575Z,980.64
2018-11-11T10:08:27.657Z,980.60
2018-11-11T10:09:34.732Z,980.56
2018-11-11T10:11:48.218Z,980.64
2018-11-11T10:14:00.934Z,980.69
2018-11-11T10:15:08.063Z,980.55
2018-11-11T10:16:15.079Z,980.60
2018-11-11T10:17:21.967Z,980.59
2018-11-11T10:18:28.991Z,980.66
2018-11-11T10:19:35.749Z,980.73
2018-11-11T10:20:52.402Z,980.72
2018-11-11T10:21:59.411Z,980.80
2018-11-11T10:23:05.379Z,980.88
2018-11-11T10:24:12.369Z,980.82
2018-11-11T10:25:19.312Z,980.78
2018-11-11T10:26:26.373Z,980.73
2018-11-11T10:27:33.002Z,980.80
2018-11-11T10:28:39.918Z,980.82
2018-11-11T10:29:47.081Z,980.81
2018-11-11T10:30:54.097Z,980.91
2018-11-11T10:32:00.994Z,980.95
2018-11-11T10:33:07.740Z,981.00
2018-11-11T10:34:14.660Z,980.99
2018-11-11T10:35:21.566Z,980.88
2018-11-11T10:36:28.143Z,980.87
2018-11-11T10:37:35.134Z,980.81
2018-11-11T10:38:41.733Z,980.84
2018-11-11T10:39:48.474Z,980.81
2018-11-11T10:40:55.845Z,980.85
2018-11-11T10:42:02.087Z,980.78
2018-11-11T10:43:10.206Z,980.84
2018-11-11T10:44:18.327Z,980.83
2018-11-11T10:45:25.163Z,980.91
2018-11-11T10:46:31.798Z,980.79
2018-11-11T10:47:38.847Z,980.77
2018-11-11T10:48:45.455Z,980.84
2018-11-11T10:49:52.429Z,980.84
2018-11-11T10:50:59.299Z,980.81
2018-11-11T10:52:06.903Z,980.92
2018-11-11T10:53:13.230Z,980.96
2018-11-11T10:54:20.115Z,980.98
2018-11-11T10:55:26.990Z,980.94
2018-11-11T10:56:33.838Z,980.96
2018-11-11T10:57:40.806Z,980.97
2018-11-11T10:58:47.646Z,981.03
2018-11-11T10:59:54.494Z,981.00
2018-11-11T11:01:01.639Z,981.13
2018-11-11T11:02:08.513Z,981.04
2018-11-11T11:03:15.331Z,980.98
2018-11-11T11:04:22.287Z,980.95
2018-11-11T11:05:29.115Z,980.94
2018-11-11T11:06:35.891Z,981.03
2018-11-11T11:07:42.844Z,981.02
2018-11-11T11:08:49.616Z,981.10
2018-11-11T11:09:56.942Z,980.99
2018-11-11T11:11:03.214Z,981.07
2018-11-11T11:12:10.324Z,981.10
2018-11-11T11:13:16.812Z,981.04
2018-11-11T11:14:23.566Z,981.02
2018-11-11T11:15:30.386Z,980.98
2018-11-11T11:16:38.205Z,981.01
2018-11-11T11:17:44.142Z,980.94
2018-11-11T11:18:50.946Z,980.97
2018-11-11T11:19:58.967Z,980.86
2018-11-11T11:21:04.751Z,981.01
2018-11-11T11:22:11.584Z,980.94
2018-11-11T11:23:18.352Z,980.99
2018-11-11T11:24:25.194Z,980.96
2018-11-11T11:25:32.025Z,981.04
2018-11-11T11:26:38.755Z,980.90
2018-11-11T11:27:45.736Z,980.96
2018-11-11T11:28:52.488Z,981.01
2018-11-11T11:29:59.362Z,980.95
2018-11-11T11:31:06.167Z,980.93
2018-11-11T11:32:13.048Z,980.96
2018-11-11T11:33:19.761Z,981.04
2018-11-11T11:34:26.578Z,980.94
2018-11-11T11:35:33.382Z,980.95
2018-11-11T11:36:41.279Z,980.99
2018-11-11T11:37:47.098Z,981.03
2018-11-11T11:38:53.926Z,981.04
2018-11-11T11:40:01.371Z,981.08
2018-11-11T11:41:07.714Z,981.13
2018-11-11T11:42:14.446Z,981.18
2018-11-11T11:43:21.186Z,981.07
2018-11-11T11:44:27.950Z,981.02
2018-11-11T11:45:34.734Z,980.99
2018-11-11T11:46:41.505Z,981.04
2018-11-11T11:47:51.774Z,981.13
2018-11-11T11:48:56.450Z,981.08
2018-11-11T11:50:02.572Z,981.11
2018-11-11T11:51:09.769Z,981.14
2018-11-11T11:52:17.017Z,981.12
2018-11-11T11:53:23.833Z,981.18
2018-11-11T11:54:30.678Z,981.20
2018-11-11T11:55:40.149Z,981.27
2018-11-11T11:56:44.617Z,981.19
2018-11-11T11:57:51.382Z,981.23
2018-11-11T11:58:58.440Z,981.19
2018-11-11T12:00:05.200Z,981.25
2018-11-11T12:01:12.354Z,981.38
2018-11-11T12:02:19.341Z,981.42
2018-11-11T12:03:26.299Z,981.27
2018-11-11T12:04:33.198Z,981.31
2018-11-11T12:05:40.006Z,981.29
2018-11-11T12:06:46.874Z,981.29
2018-11-11T12:07:54.009Z,981.41
2018-11-11T12:09:03.186Z,981.50
2018-11-11T12:10:07.775Z,981.55
2018-11-11T12:11:14.692Z,981.58
2018-11-11T12:12:21.566Z,981.66
2018-11-11T12:13:29.362Z,981.64
2018-11-11T12:14:35.279Z,981.50
2018-11-11T12:15:42.239Z,981.56
2018-11-11T12:16:49.356Z,981.55
2018-11-11T12:17:56.220Z,981.53
2018-11-11T12:19:03.051Z,981.63
2018-11-11T12:20:09.758Z,981.53
2018-11-11T12:21:16.619Z,981.61
2018-11-11T12:22:23.478Z,981.60
2018-11-11T12:23:30.387Z,981.58
2018-11-11T12:24:37.162Z,981.70
2018-11-11T12:25:43.980Z,981.53
2018-11-11T12:26:50.784Z,981.40
2018-11-11T12:27:57.653Z,981.54
2018-11-11T12:29:04.423Z,981.40
2018-11-11T12:30:11.316Z,981.35
2018-11-11T12:31:18.160Z,981.36
2018-11-11T12:32:25.011Z,981.36
2018-11-11T12:33:31.847Z,981.34
2018-11-11T12:34:38.718Z,981.41
2018-11-11T12:35:45.563Z,981.47
2018-11-11T12:36:52.366Z,981.38
2018-11-11T12:37:59.216Z,981.31
2018-11-11T12:39:06.010Z,981.43
2018-11-11T12:40:12.985Z,981.46
2018-11-11T12:41:19.830Z,981.38
2018-11-11T12:42:26.706Z,981.40
2018-11-11T12:43:33.542Z,981.38
2018-11-11T12:44:40.503Z,981.40
2018-11-11T12:45:47.348Z,981.40
2018-11-11T12:46:54.248Z,981.39
2018-11-11T12:48:00.983Z,981.38
2018-11-11T12:49:08.055Z,981.36
2018-11-11T12:50:14.951Z,981.38
2018-11-11T12:51:21.827Z,981.37
2018-11-11T12:52:28.810Z,981.39
2018-11-11T12:53:35.669Z,981.41
2018-11-11T12:54:42.555Z,981.37
2018-11-11T12:55:49.422Z,981.29
2018-11-11T12:56:56.286Z,981.25
2018-11-11T12:58:03.157Z,981.33
2018-11-11T12:59:10.045Z,981.37
2018-11-11T13:00:16.933Z,981.33
2018-11-11T13:01:23.763Z,981.32
2018-11-11T13:02:30.772Z,981.35
2018-11-11T13:03:37.691Z,981.36
2018-11-11T13:04:44.606Z,981.35
2018-11-11T13:05:51.376Z,981.35
2018-11-11T13:06:58.256Z,981.40
2018-11-11T13:08:05.138Z,981.32
2018-11-11T13:09:12.033Z,981.35
2018-11-11T13:10:18.846Z,981.26
2018-11-11T13:11:25.734Z,981.23
2018-11-11T13:12:32.571Z,981.25
2018-11-11T13:13:39.393Z,981.24
2018-11-11T13:14:46.223Z,981.27
2018-11-11T13:15:53.097Z,981.30
2018-11-11T13:16:59.964Z,981.27
2018-11-11T13:18:06.838Z,981.20
2018-11-11T13:19:13.750Z,981.26
2018-11-11T13:20:20.612Z,981.17
2018-11-11T13:21:27.498Z,981.30
2018-11-11T13:22:34.411Z,981.26
2018-11-11T13:23:41.274Z,981.36
2018-11-11T13:24:48.205Z,981.41
2018-11-11T13:25:56.883Z,981.29
2018-11-11T13:27:01.895Z,981.38
2018-11-11T13:28:08.762Z,981.37
2018-11-11T13:29:15.605Z,981.27
2018-11-11T13:30:22.533Z,981.37
2018-11-11T13:31:29.371Z,981.29
2018-11-11T13:32:36.300Z,981.28
2018-11-11T13:33:43.454Z,981.21
2018-11-11T13:34:50.281Z,981.21
2018-11-11T13:35:57.076Z,981.16
2018-11-11T13:37:03.935Z,981.21
2018-11-11T13:38:10.829Z,981.18
2018-11-11T13:39:17.646Z,981.25
2018-11-11T13:40:24.455Z,981.30
2018-11-11T13:41:31.584Z,981.23
2018-11-11T13:42:38.632Z,981.26
2018-11-11T13:43:45.526Z,981.32
2018-11-11T13:44:52.351Z,981.17
2018-11-11T13:45:59.194Z,981.12
2018-11-11T13:47:06.085Z,981.17
2018-11-11T13:48:12.932Z,981.16
2018-11-11T13:49:19.751Z,981.15
2018-11-11T13:50:26.574Z,981.08
2018-11-11T13:51:33.324Z,981.12
2018-11-11T13:52:40.231Z,981.15
2018-11-11T13:53:47.221Z,981.15
2018-11-11T13:54:54.184Z,981.17
2018-11-11T13:56:01.168Z,981.18